sensor_id;sensor_type;location;lat;lon;timestamp;temperature;humidity
63899;HTU21D;50070;-32.946;-60.652;2023-05-29T00:00:12;14.66;73.54
63899;HTU21D;50070;-32.946;-60.652;2023-05-29T00:02:39;14.44;75.92
63899;HTU21D;50070;-32.946;-60.652;2023-05-29T00:05:13;14.62;74.99
63899;HTU21D;50070;-32.946;-60.652;2023-05-29T00:07:41;14.64;74.69
63899;HTU21D;50070;-32.946;-60.652;2023-05-29T00:10:09;14.72;74.78
63899;HTU21D;50070;-32.946;-60.652;2023-05-29T00:12:37;14.65;75.25
63899;HTU21D;50070;-32.946;-60.652;2023-05-29T00:15:04;14.70;75.86
63899;HTU21D;50070;-32.946;-60.652;2023-05-29T00:17:31;14.62;77.35
63899;HTU21D;50070;-32.946;-60.652;2023-05-29T00:19:59;14.63;78.35
63899;HTU21D;50070;-32.946;-60.652;2023-05-29T00:22:27;14.80;77.63
63899;HTU21D;50070;-32.946;-60.652;2023-05-29T00:24:54;14.60;80.02
63899;HTU21D;50070;-32.946;-60.652;2023-05-29T00:27:21;14.51;80.41
63899;HTU21D;50070;-32.946;-60.652;2023-05-29T00:29:47;14.50;81.44
63899;HTU21D;50070;-32.946;-60.652;2023-05-29T00:32:14;14.69;80.07
63899;HTU21D;50070;-32.946;-60.652;2023-05-29T00:34:41;14.75;79.78
63899;HTU21D;50070;-32.946;-60.652;2023-05-29T00:37:08;14.68;81.40
63899;HTU21D;50070;-32.946;-60.652;2023-05-29T00:39:34;14.68;82.60
63899;HTU21D;50070;-32.946;-60.652;2023-05-29T00:42:01;14.78;83.50
63899;HTU21D;50070;-32.946;-60.652;2023-05-29T00:44:28;14.75;85.39
63899;HTU21D;50070;-32.946;-60.652;2023-05-29T00:46:54;14.64;89.60
63899;HTU21D;50070;-32.946;-60.652;2023-05-29T00:49:23;14.30;96.25
63899;HTU21D;50070;-32.946;-60.652;2023-05-29T00:51:52;14.26;99.74
63899;HTU21D;50070;-32.946;-60.652;2023-05-29T00:54:23;14.08;102.71
63899;HTU21D;50070;-32.946;-60.652;2023-05-29T00:56:56;14.14;103.18
63899;HTU21D;50070;-32.946;-60.652;2023-05-29T00:59:24;14.26;102.22
63899;HTU21D;50070;-32.946;-60.652;2023-05-29T01:01:52;14.18;103.47
63899;HTU21D;50070;-32.946;-60.652;2023-05-29T01:04:20;14.13;104.21
63899;HTU21D;50070;-32.946;-60.652;2023-05-29T01:06:49;14.20;104.33
63899;HTU21D;50070;-32.946;-60.652;2023-05-29T01:09:17;14.12;105.23
63899;HTU21D;50070;-32.946;-60.652;2023-05-29T01:12:01;14.21;103.83
63899;HTU21D;50070;-32.946;-60.652;2023-05-29T01:14:44;14.26;103.73
63899;HTU21D;50070;-32.946;-60.652;2023-05-29T01:28:40;14.08;99.66
63899;HTU21D;50070;-32.946;-60.652;2023-05-29T01:31:10;14.01;100.61
63899;HTU21D;50070;-32.946;-60.652;2023-05-29T01:33:40;14.09;100.90
63899;HTU21D;50070;-32.946;-60.652;2023-05-29T01:36:08;14.22;99.59
63899;HTU21D;50070;-32.946;-60.652;2023-05-29T01:38:37;14.27;99.43
63899;HTU21D;50070;-32.946;-60.652;2023-05-29T01:41:04;14.38;99.16
63899;HTU21D;50070;-32.946;-60.652;2023-05-29T01:43:31;14.30;99.79
63899;HTU21D;50070;-32.946;-60.652;2023-05-29T01:45:58;14.17;99.38
63899;HTU21D;50070;-32.946;-60.652;2023-05-29T01:48:25;14.18;98.94
63899;HTU21D;50070;-32.946;-60.652;2023-05-29T01:50:52;14.28;97.64
63899;HTU21D;50070;-32.946;-60.652;2023-05-29T01:53:20;14.11;99.06
63899;HTU21D;50070;-32.946;-60.652;2023-05-29T01:55:49;14.18;96.42
63899;HTU21D;50070;-32.946;-60.652;2023-05-29T01:58:16;14.18;97.30
63899;HTU21D;50070;-32.946;-60.652;2023-05-29T02:00:44;14.35;96.22
63899;HTU21D;50070;-32.946;-60.652;2023-05-29T02:03:11;14.29;97.71
63899;HTU21D;50070;-32.946;-60.652;2023-05-29T02:05:37;13.96;101.21
63899;HTU21D;50070;-32.946;-60.652;2023-05-29T02:08:04;13.97;101.08
63899;HTU21D;50070;-32.946;-60.652;2023-05-29T02:10:31;14.00;100.36
63899;HTU21D;50070;-32.946;-60.652;2023-05-29T02:12:58;14.03;98.83
63899;HTU21D;50070;-32.946;-60.652;2023-05-29T02:15:25;14.09;98.80
63899;HTU21D;50070;-32.946;-60.652;2023-05-29T02:17:52;14.06;95.59
63899;HTU21D;50070;-32.946;-60.652;2023-05-29T02:20:18;14.18;95.54
63899;HTU21D;50070;-32.946;-60.652;2023-05-29T02:22:45;14.08;95.47
63899;HTU21D;50070;-32.946;-60.652;2023-05-29T02:25:12;14.22;96.00
63899;HTU21D;50070;-32.946;-60.652;2023-05-29T02:27:38;13.96;97.44
63899;HTU21D;50070;-32.946;-60.652;2023-05-29T02:30:06;13.99;98.01
63899;HTU21D;50070;-32.946;-60.652;2023-05-29T02:32:34;14.08;97.74
63899;HTU21D;50070;-32.946;-60.652;2023-05-29T02:35:00;13.95;99.99
63899;HTU21D;50070;-32.946;-60.652;2023-05-29T02:37:27;14.05;99.64
63899;HTU21D;50070;-32.946;-60.652;2023-05-29T02:39:54;13.94;100.51
63899;HTU21D;50070;-32.946;-60.652;2023-05-29T02:42:21;13.84;101.44
63899;HTU21D;50070;-32.946;-60.652;2023-05-29T02:44:48;13.78;101.41
63899;HTU21D;50070;-32.946;-60.652;2023-05-29T02:47:14;13.66;102.83
63899;HTU21D;50070;-32.946;-60.652;2023-05-29T02:49:41;13.77;100.36
63899;HTU21D;50070;-32.946;-60.652;2023-05-29T02:52:09;13.77;98.41
63899;HTU21D;50070;-32.946;-60.652;2023-05-29T02:54:36;13.64;99.12
63899;HTU21D;50070;-32.946;-60.652;2023-05-29T02:57:03;13.76;95.59
63899;HTU21D;50070;-32.946;-60.652;2023-05-29T02:59:30;13.66;94.42
63899;HTU21D;50070;-32.946;-60.652;2023-05-29T03:01:58;13.96;92.82
63899;HTU21D;50070;-32.946;-60.652;2023-05-29T03:04:25;13.96;93.46
63899;HTU21D;50070;-32.946;-60.652;2023-05-29T03:06:52;13.86;93.69
63899;HTU21D;50070;-32.946;-60.652;2023-05-29T03:09:20;13.69;95.94
63899;HTU21D;50070;-32.946;-60.652;2023-05-29T03:11:47;13.59;97.69
63899;HTU21D;50070;-32.946;-60.652;2023-05-29T03:14:16;13.67;94.69
63899;HTU21D;50070;-32.946;-60.652;2023-05-29T03:16:44;13.80;95.25
63899;HTU21D;50070;-32.946;-60.652;2023-05-29T03:19:11;13.91;94.99
63899;HTU21D;50070;-32.946;-60.652;2023-05-29T03:21:38;13.83;93.40
63899;HTU21D;50070;-32.946;-60.652;2023-05-29T03:24:05;13.70;94.58
63899;HTU21D;50070;-32.946;-60.652;2023-05-29T03:26:32;13.86;95.03
63899;HTU21D;50070;-32.946;-60.652;2023-05-29T03:28:59;13.79;95.31
63899;HTU21D;50070;-32.946;-60.652;2023-05-29T03:31:25;13.70;97.27
63899;HTU21D;50070;-32.946;-60.652;2023-05-29T03:33:52;13.66;99.20
63899;HTU21D;50070;-32.946;-60.652;2023-05-29T03:36:19;13.59;99.63
63899;HTU21D;50070;-32.946;-60.652;2023-05-29T03:38:46;13.62;100.20
63899;HTU21D;50070;-32.946;-60.652;2023-05-29T03:41:12;13.49;100.98
63899;HTU21D;50070;-32.946;-60.652;2023-05-29T03:43:39;13.29;103.86
63899;HTU21D;50070;-32.946;-60.652;2023-05-29T03:46:06;13.31;104.19
63899;HTU21D;50070;-32.946;-60.652;2023-05-29T03:48:33;13.43;104.12
63899;HTU21D;50070;-32.946;-60.652;2023-05-29T03:50:59;13.48;104.22
63899;HTU21D;50070;-32.946;-60.652;2023-05-29T03:53:26;13.43;105.24
63899;HTU21D;50070;-32.946;-60.652;2023-05-29T03:55:53;13.40;106.25
63899;HTU21D;50070;-32.946;-60.652;2023-05-29T03:58:19;13.46;104.69
63899;HTU21D;50070;-32.946;-60.652;2023-05-29T04:00:46;13.44;105.28
63899;HTU21D;50070;-32.946;-60.652;2023-05-29T04:03:13;13.47;104.88
63899;HTU21D;50070;-32.946;-60.652;2023-05-29T04:05:40;13.38;106.18
63899;HTU21D;50070;-32.946;-60.652;2023-05-29T04:08:07;13.49;106.50
63899;HTU21D;50070;-32.946;-60.652;2023-05-29T04:10:35;13.45;105.47
63899;HTU21D;50070;-32.946;-60.652;2023-05-29T04:13:02;13.38;103.99
63899;HTU21D;50070;-32.946;-60.652;2023-05-29T04:15:29;13.30;104.83
63899;HTU21D;50070;-32.946;-60.652;2023-05-29T04:17:56;13.39;104.50
63899;HTU21D;50070;-32.946;-60.652;2023-05-29T04:20:23;13.30;105.81
63899;HTU21D;50070;-32.946;-60.652;2023-05-29T04:22:49;13.39;104.93
63899;HTU21D;50070;-32.946;-60.652;2023-05-29T04:25:16;13.46;104.37
63899;HTU21D;50070;-32.946;-60.652;2023-05-29T04:27:44;13.51;104.65
63899;HTU21D;50070;-32.946;-60.652;2023-05-29T04:30:15;13.36;105.69
63899;HTU21D;50070;-32.946;-60.652;2023-05-29T04:32:42;13.04;108.35
63899;HTU21D;50070;-32.946;-60.652;2023-05-29T04:35:09;13.31;107.04
63899;HTU21D;50070;-32.946;-60.652;2023-05-29T04:37:36;13.39;105.72
63899;HTU21D;50070;-32.946;-60.652;2023-05-29T04:40:07;13.29;106.03
63899;HTU21D;50070;-32.946;-60.652;2023-05-29T04:42:38;13.40;104.40
63899;HTU21D;50070;-32.946;-60.652;2023-05-29T04:45:08;13.40;102.88
63899;HTU21D;50070;-32.946;-60.652;2023-05-29T04:47:36;13.40;104.01
63899;HTU21D;50070;-32.946;-60.652;2023-05-29T04:50:11;13.37;104.15
63899;HTU21D;50070;-32.946;-60.652;2023-05-29T04:52:38;13.34;103.54
63899;HTU21D;50070;-32.946;-60.652;2023-05-29T04:55:05;13.44;101.32
63899;HTU21D;50070;-32.946;-60.652;2023-05-29T04:57:32;13.33;101.12
63899;HTU21D;50070;-32.946;-60.652;2023-05-29T04:59:59;13.37;101.12
63899;HTU21D;50070;-32.946;-60.652;2023-05-29T05:02:26;13.37;100.90
63899;HTU21D;50070;-32.946;-60.652;2023-05-29T05:04:52;13.23;102.01
63899;HTU21D;50070;-32.946;-60.652;2023-05-29T05:07:19;13.25;102.58
63899;HTU21D;50070;-32.946;-60.652;2023-05-29T05:09:46;13.38;102.70
63899;HTU21D;50070;-32.946;-60.652;2023-05-29T05:12:13;13.34;101.78
63899;HTU21D;50070;-32.946;-60.652;2023-05-29T05:14:40;13.20;103.57
63899;HTU21D;50070;-32.946;-60.652;2023-05-29T05:17:07;13.12;104.20
63899;HTU21D;50070;-32.946;-60.652;2023-05-29T05:19:33;13.27;102.73
63899;HTU21D;50070;-32.946;-60.652;2023-05-29T05:22:00;13.29;102.12
63899;HTU21D;50070;-32.946;-60.652;2023-05-29T05:24:27;13.08;104.68
63899;HTU21D;50070;-32.946;-60.652;2023-05-29T05:26:54;13.20;103.74
63899;HTU21D;50070;-32.946;-60.652;2023-05-29T05:29:20;13.17;103.17
63899;HTU21D;50070;-32.946;-60.652;2023-05-29T05:31:47;13.07;103.94
63899;HTU21D;50070;-32.946;-60.652;2023-05-29T05:34:14;12.86;105.81
63899;HTU21D;50070;-32.946;-60.652;2023-05-29T05:36:41;13.05;104.42
63899;HTU21D;50070;-32.946;-60.652;2023-05-29T05:39:07;12.97;104.83
63899;HTU21D;50070;-32.946;-60.652;2023-05-29T05:41:34;13.06;104.16
63899;HTU21D;50070;-32.946;-60.652;2023-05-29T05:44:01;12.81;106.37
63899;HTU21D;50070;-32.946;-60.652;2023-05-29T05:46:27;12.86;105.97
63899;HTU21D;50070;-32.946;-60.652;2023-05-29T05:48:54;12.94;105.11
63899;HTU21D;50070;-32.946;-60.652;2023-05-29T05:51:24;12.82;105.66
63899;HTU21D;50070;-32.946;-60.652;2023-05-29T05:53:51;12.80;105.58
63899;HTU21D;50070;-32.946;-60.652;2023-05-29T05:56:17;12.90;104.70
63899;HTU21D;50070;-32.946;-60.652;2023-05-29T05:58:44;13.06;102.12
63899;HTU21D;50070;-32.946;-60.652;2023-05-29T06:01:11;13.02;102.14
63899;HTU21D;50070;-32.946;-60.652;2023-05-29T06:03:38;12.92;100.86
63899;HTU21D;50070;-32.946;-60.652;2023-05-29T06:06:05;13.12;99.97
63899;HTU21D;50070;-32.946;-60.652;2023-05-29T06:08:32;13.11;99.42
63899;HTU21D;50070;-32.946;-60.652;2023-05-29T06:10:58;12.90;100.99
63899;HTU21D;50070;-32.946;-60.652;2023-05-29T06:13:25;12.84;100.05
63899;HTU21D;50070;-32.946;-60.652;2023-05-29T06:15:52;13.07;99.32
63899;HTU21D;50070;-32.946;-60.652;2023-05-29T06:18:18;12.92;100.83
63899;HTU21D;50070;-32.946;-60.652;2023-05-29T06:20:45;12.93;99.71
63899;HTU21D;50070;-32.946;-60.652;2023-05-29T06:23:12;12.95;99.67
63899;HTU21D;50070;-32.946;-60.652;2023-05-29T06:25:39;12.82;99.48
63899;HTU21D;50070;-32.946;-60.652;2023-05-29T06:28:06;12.65;101.49
63899;HTU21D;50070;-32.946;-60.652;2023-05-29T06:30:32;12.69;101.99
63899;HTU21D;50070;-32.946;-60.652;2023-05-29T06:32:59;12.93;100.90
63899;HTU21D;50070;-32.946;-60.652;2023-05-29T06:35:26;12.96;101.25
63899;HTU21D;50070;-32.946;-60.652;2023-05-29T06:37:53;12.44;105.05
63899;HTU21D;50070;-32.946;-60.652;2023-05-29T06:40:19;12.47;106.20
63899;HTU21D;50070;-32.946;-60.652;2023-05-29T06:42:46;12.84;104.28
63899;HTU21D;50070;-32.946;-60.652;2023-05-29T06:45:13;12.81;104.24
63899;HTU21D;50070;-32.946;-60.652;2023-05-29T06:47:43;12.79;105.08
63899;HTU21D;50070;-32.946;-60.652;2023-05-29T06:50:10;12.66;105.82
63899;HTU21D;50070;-32.946;-60.652;2023-05-29T06:52:36;12.47;108.06
63899;HTU21D;50070;-32.946;-60.652;2023-05-29T06:55:03;12.59;107.40
63899;HTU21D;50070;-32.946;-60.652;2023-05-29T06:57:30;12.75;105.22
63899;HTU21D;50070;-32.946;-60.652;2023-05-29T06:59:57;12.55;106.37
63899;HTU21D;50070;-32.946;-60.652;2023-05-29T07:02:24;12.76;105.14
63899;HTU21D;50070;-32.946;-60.652;2023-05-29T07:04:51;12.62;105.43
63899;HTU21D;50070;-32.946;-60.652;2023-05-29T07:07:17;12.62;106.06
63899;HTU21D;50070;-32.946;-60.652;2023-05-29T07:09:44;12.65;105.79
63899;HTU21D;50070;-32.946;-60.652;2023-05-29T07:12:11;12.72;105.11
63899;HTU21D;50070;-32.946;-60.652;2023-05-29T07:14:37;12.52;106.81
63899;HTU21D;50070;-32.946;-60.652;2023-05-29T07:17:04;12.77;105.99
63899;HTU21D;50070;-32.946;-60.652;2023-05-29T07:19:31;12.75;106.08
63899;HTU21D;50070;-32.946;-60.652;2023-05-29T07:22:01;12.48;107.58
63899;HTU21D;50070;-32.946;-60.652;2023-05-29T07:24:28;12.60;107.02
63899;HTU21D;50070;-32.946;-60.652;2023-05-29T07:26:54;12.63;108.40
63899;HTU21D;50070;-32.946;-60.652;2023-05-29T07:29:21;12.44;109.23
63899;HTU21D;50070;-32.946;-60.652;2023-05-29T07:31:50;12.53;108.04
63899;HTU21D;50070;-32.946;-60.652;2023-05-29T07:34:17;12.55;108.96
63899;HTU21D;50070;-32.946;-60.652;2023-05-29T07:37:16;12.48;108.88
63899;HTU21D;50070;-32.946;-60.652;2023-05-29T07:39:45;12.53;108.14
63899;HTU21D;50070;-32.946;-60.652;2023-05-29T07:42:11;12.47;109.10
63899;HTU21D;50070;-32.946;-60.652;2023-05-29T07:44:38;12.34;110.13
63899;HTU21D;50070;-32.946;-60.652;2023-05-29T07:47:08;12.25;110.27
63899;HTU21D;50070;-32.946;-60.652;2023-05-29T07:49:35;12.55;108.60
63899;HTU21D;50070;-32.946;-60.652;2023-05-29T07:52:05;12.69;107.72
63899;HTU21D;50070;-32.946;-60.652;2023-05-29T07:54:32;12.44;109.42
63899;HTU21D;50070;-32.946;-60.652;2023-05-29T07:57:00;12.41;109.71
63899;HTU21D;50070;-32.946;-60.652;2023-05-29T07:59:29;12.51;108.48
63899;HTU21D;50070;-32.946;-60.652;2023-05-29T08:01:55;12.45;108.72
63899;HTU21D;50070;-32.946;-60.652;2023-05-29T08:04:24;12.43;109.62
63899;HTU21D;50070;-32.946;-60.652;2023-05-29T08:06:51;12.55;108.92
63899;HTU21D;50070;-32.946;-60.652;2023-05-29T08:09:18;12.52;109.68
63899;HTU21D;50070;-32.946;-60.652;2023-05-29T08:11:45;12.48;109.81
63899;HTU21D;50070;-32.946;-60.652;2023-05-29T08:14:15;12.58;108.43
63899;HTU21D;50070;-32.946;-60.652;2023-05-29T08:16:41;12.43;108.65
63899;HTU21D;50070;-32.946;-60.652;2023-05-29T08:19:08;12.26;108.46
63899;HTU21D;50070;-32.946;-60.652;2023-05-29T08:21:35;12.31;107.26
63899;HTU21D;50070;-32.946;-60.652;2023-05-29T08:24:04;12.21;108.59
63899;HTU21D;50070;-32.946;-60.652;2023-05-29T08:26:31;12.48;105.53
63899;HTU21D;50070;-32.946;-60.652;2023-05-29T08:28:58;12.41;105.28
63899;HTU21D;50070;-32.946;-60.652;2023-05-29T08:31:24;12.33;105.58
63899;HTU21D;50070;-32.946;-60.652;2023-05-29T08:33:52;12.44;104.47
63899;HTU21D;50070;-32.946;-60.652;2023-05-29T08:36:19;12.35;105.11
63899;HTU21D;50070;-32.946;-60.652;2023-05-29T08:38:49;12.32;104.84
63899;HTU21D;50070;-32.946;-60.652;2023-05-29T08:43:53;12.21;106.53
63899;HTU21D;50070;-32.946;-60.652;2023-05-29T08:46:20;12.33;106.43
63899;HTU21D;50070;-32.946;-60.652;2023-05-29T08:48:48;12.51;104.24
63899;HTU21D;50070;-32.946;-60.652;2023-05-29T08:51:23;12.27;105.88
63899;HTU21D;50070;-32.946;-60.652;2023-05-29T08:53:57;12.22;106.77
63899;HTU21D;50070;-32.946;-60.652;2023-05-29T08:56:24;12.45;105.31
63899;HTU21D;50070;-32.946;-60.652;2023-05-29T08:58:51;12.30;106.43
63899;HTU21D;50070;-32.946;-60.652;2023-05-29T09:01:18;12.13;107.75
63899;HTU21D;50070;-32.946;-60.652;2023-05-29T09:03:47;12.21;106.97
63899;HTU21D;50070;-32.946;-60.652;2023-05-29T09:06:14;12.12;107.96
63899;HTU21D;50070;-32.946;-60.652;2023-05-29T09:08:40;12.12;107.95
63899;HTU21D;50070;-32.946;-60.652;2023-05-29T09:11:07;12.15;107.44
63899;HTU21D;50070;-32.946;-60.652;2023-05-29T09:13:34;12.21;106.68
63899;HTU21D;50070;-32.946;-60.652;2023-05-29T09:16:01;12.37;105.39
63899;HTU21D;50070;-32.946;-60.652;2023-05-29T09:18:32;12.17;105.08
63899;HTU21D;50070;-32.946;-60.652;2023-05-29T09:20:59;12.30;104.10
63899;HTU21D;50070;-32.946;-60.652;2023-05-29T09:23:26;12.53;101.71
63899;HTU21D;50070;-32.946;-60.652;2023-05-29T09:25:53;12.48;101.34
63899;HTU21D;50070;-32.946;-60.652;2023-05-29T09:28:23;12.35;102.60
63899;HTU21D;50070;-32.946;-60.652;2023-05-29T09:30:51;12.38;102.25
63899;HTU21D;50070;-32.946;-60.652;2023-05-29T09:33:18;12.31;102.99
63899;HTU21D;50070;-32.946;-60.652;2023-05-29T09:35:46;12.51;102.31
63899;HTU21D;50070;-32.946;-60.652;2023-05-29T09:38:16;12.55;101.26
63899;HTU21D;50070;-32.946;-60.652;2023-05-29T09:40:43;12.40;103.26
63899;HTU21D;50070;-32.946;-60.652;2023-05-29T09:43:14;12.26;104.41
63899;HTU21D;50070;-32.946;-60.652;2023-05-29T09:45:44;12.20;105.41
63899;HTU21D;50070;-32.946;-60.652;2023-05-29T09:48:18;12.06;106.65
63899;HTU21D;50070;-32.946;-60.652;2023-05-29T09:50:48;12.15;106.72
63899;HTU21D;50070;-32.946;-60.652;2023-05-29T09:53:23;12.26;107.94
63899;HTU21D;50070;-32.946;-60.652;2023-05-29T09:55:56;12.22;108.32
63899;HTU21D;50070;-32.946;-60.652;2023-05-29T09:58:26;12.10;111.17
63899;HTU21D;50070;-32.946;-60.652;2023-05-29T10:00:53;12.19;111.23
63899;HTU21D;50070;-32.946;-60.652;2023-05-29T10:03:20;12.18;109.38
63899;HTU21D;50070;-32.946;-60.652;2023-05-29T10:05:51;12.11;102.80
63899;HTU21D;50070;-32.946;-60.652;2023-05-29T10:08:20;12.40;104.21
63899;HTU21D;50070;-32.946;-60.652;2023-05-29T10:10:52;12.41;102.31
63899;HTU21D;50070;-32.946;-60.652;2023-05-29T10:13:22;12.23;99.97
63899;HTU21D;50070;-32.946;-60.652;2023-05-29T10:15:53;12.22;103.27
63899;HTU21D;50070;-32.946;-60.652;2023-05-29T10:18:26;12.41;101.03
63899;HTU21D;50070;-32.946;-60.652;2023-05-29T10:20:55;12.38;99.29
63899;HTU21D;50070;-32.946;-60.652;2023-05-29T10:23:25;12.26;100.81
63899;HTU21D;50070;-32.946;-60.652;2023-05-29T10:25:53;12.26;103.60
63899;HTU21D;50070;-32.946;-60.652;2023-05-29T10:28:21;12.22;104.95
63899;HTU21D;50070;-32.946;-60.652;2023-05-29T10:33:43;12.37;104.50
63899;HTU21D;50070;-32.946;-60.652;2023-05-29T10:36:18;12.18;103.86
63899;HTU21D;50070;-32.946;-60.652;2023-05-29T10:38:48;12.38;104.28
63899;HTU21D;50070;-32.946;-60.652;2023-05-29T10:44:01;12.31;101.24
63899;HTU21D;50070;-32.946;-60.652;2023-05-29T10:49:20;12.50;104.48
63899;HTU21D;50070;-32.946;-60.652;2023-05-29T10:51:47;12.30;106.23
63899;HTU21D;50070;-32.946;-60.652;2023-05-29T10:54:21;12.37;105.91
63899;HTU21D;50070;-32.946;-60.652;2023-05-29T10:57:07;12.25;107.97
63899;HTU21D;50070;-32.946;-60.652;2023-05-29T10:59:38;12.40;107.11
63899;HTU21D;50070;-32.946;-60.652;2023-05-29T11:02:05;12.51;105.52
63899;HTU21D;50070;-32.946;-60.652;2023-05-29T11:04:32;12.45;105.63
63899;HTU21D;50070;-32.946;-60.652;2023-05-29T11:07:00;12.52;104.11
63899;HTU21D;50070;-32.946;-60.652;2023-05-29T11:09:32;12.47;105.55
63899;HTU21D;50070;-32.946;-60.652;2023-05-29T11:12:23;12.38;106.24
63899;HTU21D;50070;-32.946;-60.652;2023-05-29T11:15:09;12.35;106.56
63899;HTU21D;50070;-32.946;-60.652;2023-05-29T11:25:25;12.42;101.04
63899;HTU21D;50070;-32.946;-60.652;2023-05-29T11:27:52;12.29;101.29
63899;HTU21D;50070;-32.946;-60.652;2023-05-29T11:30:19;12.40;100.52
63899;HTU21D;50070;-32.946;-60.652;2023-05-29T11:32:47;12.18;101.62
63899;HTU21D;50070;-32.946;-60.652;2023-05-29T11:35:14;12.27;102.73
63899;HTU21D;50070;-32.946;-60.652;2023-05-29T11:37:42;12.29;102.84
63899;HTU21D;50070;-32.946;-60.652;2023-05-29T11:40:13;12.26;104.26
63899;HTU21D;50070;-32.946;-60.652;2023-05-29T11:42:44;12.25;105.60
63899;HTU21D;50070;-32.946;-60.652;2023-05-29T11:48:01;12.65;100.78
63899;HTU21D;50070;-32.946;-60.652;2023-05-29T11:50:33;12.48;98.58
63899;HTU21D;50070;-32.946;-60.652;2023-05-29T11:53:00;12.40;101.35
63899;HTU21D;50070;-32.946;-60.652;2023-05-29T11:55:28;12.27;102.73
63899;HTU21D;50070;-32.946;-60.652;2023-05-29T11:57:59;12.17;98.84
63899;HTU21D;50070;-32.946;-60.652;2023-05-29T12:00:31;12.41;98.48
63899;HTU21D;50070;-32.946;-60.652;2023-05-29T12:02:59;12.59;99.03
63899;HTU21D;50070;-32.946;-60.652;2023-05-29T12:05:51;12.34;101.31
63899;HTU21D;50070;-32.946;-60.652;2023-05-29T12:08:25;12.43;101.86
63899;HTU21D;50070;-32.946;-60.652;2023-05-29T12:10:52;12.52;101.48
63899;HTU21D;50070;-32.946;-60.652;2023-05-29T12:13:20;12.52;102.12
63899;HTU21D;50070;-32.946;-60.652;2023-05-29T12:15:48;12.56;101.73
63899;HTU21D;50070;-32.946;-60.652;2023-05-29T12:18:16;12.51;101.34
63899;HTU21D;50070;-32.946;-60.652;2023-05-29T12:20:43;12.57;101.63
63899;HTU21D;50070;-32.946;-60.652;2023-05-29T12:23:10;12.45;102.00
63899;HTU21D;50070;-32.946;-60.652;2023-05-29T12:25:38;12.71;100.86
63899;HTU21D;50070;-32.946;-60.652;2023-05-29T12:28:05;12.61;99.43
63899;HTU21D;50070;-32.946;-60.652;2023-05-29T12:30:37;12.76;99.25
63899;HTU21D;50070;-32.946;-60.652;2023-05-29T12:33:09;12.69;99.12
63899;HTU21D;50070;-32.946;-60.652;2023-05-29T12:35:51;12.76;99.38
63899;HTU21D;50070;-32.946;-60.652;2023-05-29T12:38:18;12.61;99.59
63899;HTU21D;50070;-32.946;-60.652;2023-05-29T12:40:48;12.50;102.11
63899;HTU21D;50070;-32.946;-60.652;2023-05-29T12:43:16;12.65;101.96
63899;HTU21D;50070;-32.946;-60.652;2023-05-29T12:45:43;12.46;102.29
63899;HTU21D;50070;-32.946;-60.652;2023-05-29T12:48:10;12.70;100.20
63899;HTU21D;50070;-32.946;-60.652;2023-05-29T12:50:41;12.82;98.48
63899;HTU21D;50070;-32.946;-60.652;2023-05-29T12:53:09;12.59;100.68
63899;HTU21D;50070;-32.946;-60.652;2023-05-29T12:55:38;12.29;103.58
63899;HTU21D;50070;-32.946;-60.652;2023-05-29T12:58:06;12.73;101.25
63899;HTU21D;50070;-32.946;-60.652;2023-05-29T13:00:38;12.91;99.05
63899;HTU21D;50070;-32.946;-60.652;2023-05-29T13:03:07;13.05;99.09
63899;HTU21D;50070;-32.946;-60.652;2023-05-29T13:05:34;13.06;97.92
63899;HTU21D;50070;-32.946;-60.652;2023-05-29T13:08:02;12.78;98.80
63899;HTU21D;50070;-32.946;-60.652;2023-05-29T13:10:31;12.69;100.35
63899;HTU21D;50070;-32.946;-60.652;2023-05-29T13:12:57;12.81;100.00
63899;HTU21D;50070;-32.946;-60.652;2023-05-29T13:15:26;12.81;99.75
63899;HTU21D;50070;-32.946;-60.652;2023-05-29T13:17:53;12.80;100.06
63899;HTU21D;50070;-32.946;-60.652;2023-05-29T13:20:21;13.09;98.35
63899;HTU21D;50070;-32.946;-60.652;2023-05-29T13:22:48;13.11;92.32
63899;HTU21D;50070;-32.946;-60.652;2023-05-29T13:25:16;13.19;90.86
63899;HTU21D;50070;-32.946;-60.652;2023-05-29T13:27:45;13.24;88.99
63899;HTU21D;50070;-32.946;-60.652;2023-05-29T13:30:12;13.25;88.43
63899;HTU21D;50070;-32.946;-60.652;2023-05-29T13:32:40;13.32;90.40
63899;HTU21D;50070;-32.946;-60.652;2023-05-29T13:35:07;13.25;90.08
63899;HTU21D;50070;-32.946;-60.652;2023-05-29T13:37:36;13.38;87.98
63899;HTU21D;50070;-32.946;-60.652;2023-05-29T13:40:03;13.52;89.41
63899;HTU21D;50070;-32.946;-60.652;2023-05-29T13:42:31;13.38;89.56
63899;HTU21D;50070;-32.946;-60.652;2023-05-29T13:44:58;13.45;90.05
63899;HTU21D;50070;-32.946;-60.652;2023-05-29T13:47:24;13.41;87.52
63899;HTU21D;50070;-32.946;-60.652;2023-05-29T13:49:54;13.65;86.93
63899;HTU21D;50070;-32.946;-60.652;2023-05-29T13:52:21;13.53;84.61
63899;HTU21D;50070;-32.946;-60.652;2023-05-29T13:54:48;13.50;85.86
63899;HTU21D;50070;-32.946;-60.652;2023-05-29T13:57:14;13.55;86.42
63899;HTU21D;50070;-32.946;-60.652;2023-05-29T13:59:41;13.45;86.76
63899;HTU21D;50070;-32.946;-60.652;2023-05-29T14:02:08;13.61;85.93
63899;HTU21D;50070;-32.946;-60.652;2023-05-29T14:04:35;13.50;87.86
63899;HTU21D;50070;-32.946;-60.652;2023-05-29T14:07:01;13.79;86.91
63899;HTU21D;50070;-32.946;-60.652;2023-05-29T14:09:28;13.94;84.17
63899;HTU21D;50070;-32.946;-60.652;2023-05-29T14:11:57;13.61;82.75
63899;HTU21D;50070;-32.946;-60.652;2023-05-29T14:14:25;13.60;80.36
63899;HTU21D;50070;-32.946;-60.652;2023-05-29T14:16:52;13.82;76.56
63899;HTU21D;50070;-32.946;-60.652;2023-05-29T14:19:23;13.92;78.08
63899;HTU21D;50070;-32.946;-60.652;2023-05-29T14:21:51;14.15;78.43
63899;HTU21D;50070;-32.946;-60.652;2023-05-29T14:24:18;14.22;79.13
63899;HTU21D;50070;-32.946;-60.652;2023-05-29T14:26:44;14.37;79.95
63899;HTU21D;50070;-32.946;-60.652;2023-05-29T14:29:13;14.06;79.48
63899;HTU21D;50070;-32.946;-60.652;2023-05-29T14:31:41;13.90;79.12
63899;HTU21D;50070;-32.946;-60.652;2023-05-29T14:34:08;13.96;78.19
63899;HTU21D;50070;-32.946;-60.652;2023-05-29T14:36:36;13.94;78.21
63899;HTU21D;50070;-32.946;-60.652;2023-05-29T14:39:04;14.17;76.81
63899;HTU21D;50070;-32.946;-60.652;2023-05-29T14:41:31;14.11;78.24
63899;HTU21D;50070;-32.946;-60.652;2023-05-29T14:44:00;13.96;79.96
63899;HTU21D;50070;-32.946;-60.652;2023-05-29T14:46:27;14.25;81.33
63899;HTU21D;50070;-32.946;-60.652;2023-05-29T14:48:58;14.21;77.93
63899;HTU21D;50070;-32.946;-60.652;2023-05-29T14:51:25;14.37;77.39
63899;HTU21D;50070;-32.946;-60.652;2023-05-29T14:53:52;14.49;76.37
63899;HTU21D;50070;-32.946;-60.652;2023-05-29T14:56:19;14.63;74.60
63899;HTU21D;50070;-32.946;-60.652;2023-05-29T14:58:46;14.49;75.50
63899;HTU21D;50070;-32.946;-60.652;2023-05-29T15:01:16;14.68;76.41
63899;HTU21D;50070;-32.946;-60.652;2023-05-29T15:03:43;14.78;74.58